sensor_id;sensor_type;location;lat;lon;timestamp;P1;durP1;ratioP1;P2;durP2;ratioP2
68234;SDS011;55052;52.056;5.296;2023-04-25T00:01:20;15.05;;;3.67;;
68234;SDS011;55052;52.056;5.296;2023-04-25T00:03:48;17.52;;;3.28;;
68234;SDS011;55052;52.056;5.296;2023-04-25T00:06:15;14.55;;;3.08;;
68234;SDS011;55052;52.056;5.296;2023-04-25T00:08:43;13.85;;;3.75;;
68234;SDS011;55052;52.056;5.296;2023-04-25T00:11:10;12.65;;;3.47;;
68234;SDS011;55052;52.056;5.296;2023-04-25T00:13:37;13.10;;;3.17;;
68234;SDS011;55052;52.056;5.296;2023-04-25T00:18:34;14.35;;;3.58;;
68234;SDS011;55052;52.056;5.296;2023-04-25T00:21:02;11.63;;;3.42;;
68234;SDS011;55052;52.056;5.296;2023-04-25T00:23:32;14.43;;;3.72;;
68234;SDS011;55052;52.056;5.296;2023-04-25T00:25:59;12.75;;;3.50;;
68234;SDS011;55052;52.056;5.296;2023-04-25T00:28:25;15.48;;;3.50;;
68234;SDS011;55052;52.056;5.296;2023-04-25T00:30:52;15.55;;;3.40;;
68234;SDS011;55052;52.056;5.296;2023-04-25T00:33:19;15.57;;;3.42;;
68234;SDS011;55052;52.056;5.296;2023-04-25T00:35:47;14.60;;;4.07;;
68234;SDS011;55052;52.056;5.296;2023-04-25T00:38:13;13.48;;;3.53;;
68234;SDS011;55052;52.056;5.296;2023-04-25T00:40:41;10.93;;;3.60;;
68234;SDS011;55052;52.056;5.296;2023-04-25T00:43:09;11.75;;;3.45;;
68234;SDS011;55052;52.056;5.296;2023-04-25T00:45:37;11.07;;;3.40;;
68234;SDS011;55052;52.056;5.296;2023-04-25T00:48:05;11.70;;;3.53;;
68234;SDS011;55052;52.056;5.296;2023-04-25T00:50:33;7.82;;;2.83;;
68234;SDS011;55052;52.056;5.296;2023-04-25T00:53:00;12.25;;;3.60;;
68234;SDS011;55052;52.056;5.296;2023-04-25T00:55:29;14.10;;;3.78;;
68234;SDS011;55052;52.056;5.296;2023-04-25T00:57:57;11.55;;;3.65;;
68234;SDS011;55052;52.056;5.296;2023-04-25T01:00:24;13.48;;;3.60;;
68234;SDS011;55052;52.056;5.296;2023-04-25T01:02:51;13.75;;;3.70;;
68234;SDS011;55052;52.056;5.296;2023-04-25T01:05:19;8.88;;;3.33;;
68234;SDS011;55052;52.056;5.296;2023-04-25T01:07:45;24.83;;;4.18;;
68234;SDS011;55052;52.056;5.296;2023-04-25T01:10:13;14.30;;;3.33;;
68234;SDS011;55052;52.056;5.296;2023-04-25T01:12:40;12.63;;;3.00;;
68234;SDS011;55052;52.056;5.296;2023-04-25T01:15:07;13.35;;;4.03;;
68234;SDS011;55052;52.056;5.296;2023-04-25T01:17:34;13.73;;;3.53;;
68234;SDS011;55052;52.056;5.296;2023-04-25T01:20:05;11.68;;;3.45;;
68234;SDS011;55052;52.056;5.296;2023-04-25T01:22:33;15.60;;;3.72;;
68234;SDS011;55052;52.056;5.296;2023-04-25T01:25:00;15.02;;;3.28;;
68234;SDS011;55052;52.056;5.296;2023-04-25T01:27:28;11.40;;;3.60;;
68234;SDS011;55052;52.056;5.296;2023-04-25T01:29:55;10.18;;;3.72;;
68234;SDS011;55052;52.056;5.296;2023-04-25T01:32:23;14.35;;;3.85;;
68234;SDS011;55052;52.056;5.296;2023-04-25T01:34:50;16.08;;;3.58;;
68234;SDS011;55052;52.056;5.296;2023-04-25T01:37:17;14.82;;;3.58;;
68234;SDS011;55052;52.056;5.296;2023-04-25T01:39:44;13.18;;;3.80;;
68234;SDS011;55052;52.056;5.296;2023-04-25T01:42:11;11.70;;;3.72;;
68234;SDS011;55052;52.056;5.296;2023-04-25T01:44:39;15.07;;;3.55;;
68234;SDS011;55052;52.056;5.296;2023-04-25T01:47:06;10.52;;;3.30;;
68234;SDS011;55052;52.056;5.296;2023-04-25T01:49:32;13.00;;;3.67;;
68234;SDS011;55052;52.056;5.296;2023-04-25T01:51:59;13.80;;;3.58;;
68234;SDS011;55052;52.056;5.296;2023-04-25T01:54:26;11.43;;;3.90;;
68234;SDS011;55052;52.056;5.296;2023-04-25T01:56:53;15.40;;;3.63;;
68234;SDS011;55052;52.056;5.296;2023-04-25T01:59:23;12.52;;;3.50;;
68234;SDS011;55052;52.056;5.296;2023-04-25T02:01:51;11.73;;;3.45;;
68234;SDS011;55052;52.056;5.296;2023-04-25T02:04:17;8.55;;;3.67;;
68234;SDS011;55052;52.056;5.296;2023-04-25T02:06:44;9.82;;;3.35;;
68234;SDS011;55052;52.056;5.296;2023-04-25T02:09:12;11.32;;;3.47;;
68234;SDS011;55052;52.056;5.296;2023-04-25T02:11:38;14.10;;;3.97;;
68234;SDS011;55052;52.056;5.296;2023-04-25T02:14:05;13.18;;;3.58;;
68234;SDS011;55052;52.056;5.296;2023-04-25T02:16:32;13.68;;;4.00;;
68234;SDS011;55052;52.056;5.296;2023-04-25T02:18:59;11.30;;;3.45;;
68234;SDS011;55052;52.056;5.296;2023-04-25T02:21:26;12.13;;;3.85;;
68234;SDS011;55052;52.056;5.296;2023-04-25T02:23:53;12.10;;;3.78;;
68234;SDS011;55052;52.056;5.296;2023-04-25T02:26:20;11.32;;;3.30;;
68234;SDS011;55052;52.056;5.296;2023-04-25T02:28:50;8.77;;;3.08;;
68234;SDS011;55052;52.056;5.296;2023-04-25T02:31:17;8.90;;;2.97;;
68234;SDS011;55052;52.056;5.296;2023-04-25T02:33:44;7.20;;;3.10;;
68234;SDS011;55052;52.056;5.296;2023-04-25T02:36:11;11.15;;;3.80;;
68234;SDS011;55052;52.056;5.296;2023-04-25T02:38:38;11.70;;;3.45;;
68234;SDS011;55052;52.056;5.296;2023-04-25T02:41:05;8.90;;;3.42;;
68234;SDS011;55052;52.056;5.296;2023-04-25T02:43:32;8.30;;;3.30;;
68234;SDS011;55052;52.056;5.296;2023-04-25T02:45:58;12.13;;;3.13;;
68234;SDS011;55052;52.056;5.296;2023-04-25T02:48:25;7.10;;;2.85;;
68234;SDS011;55052;52.056;5.296;2023-04-25T02:50:52;11.90;;;3.20;;
68234;SDS011;55052;52.056;5.296;2023-04-25T02:53:19;9.48;;;3.20;;
68234;SDS011;55052;52.056;5.296;2023-04-25T02:55:46;11.38;;;3.28;;
68234;SDS011;55052;52.056;5.296;2023-04-25T02:58:12;8.13;;;3.05;;
68234;SDS011;55052;52.056;5.296;2023-04-25T03:00:39;7.32;;;2.95;;
68234;SDS011;55052;52.056;5.296;2023-04-25T03:03:06;5.80;;;2.97;;
68234;SDS011;55052;52.056;5.296;2023-04-25T03:05:33;10.15;;;3.53;;
68234;SDS011;55052;52.056;5.296;2023-04-25T03:08:00;9.32;;;3.50;;
68234;SDS011;55052;52.056;5.296;2023-04-25T03:10:26;9.88;;;3.35;;
68234;SDS011;55052;52.056;5.296;2023-04-25T03:12:53;8.63;;;3.42;;
68234;SDS011;55052;52.056;5.296;2023-04-25T03:15:20;10.60;;;3.53;;
68234;SDS011;55052;52.056;5.296;2023-04-25T03:17:47;9.77;;;3.47;;
68234;SDS011;55052;52.056;5.296;2023-04-25T03:20:14;10.02;;;3.72;;
68234;SDS011;55052;52.056;5.296;2023-04-25T03:22:43;11.45;;;3.72;;
68234;SDS011;55052;52.056;5.296;2023-04-25T03:25:11;8.90;;;3.40;;
68234;SDS011;55052;52.056;5.296;2023-04-25T03:27:37;11.00;;;3.45;;
68234;SDS011;55052;52.056;5.296;2023-04-25T03:30:04;8.60;;;3.33;;
68234;SDS011;55052;52.056;5.296;2023-04-25T03:32:32;11.07;;;3.42;;
68234;SDS011;55052;52.056;5.296;2023-04-25T03:35:00;13.85;;;4.28;;
68234;SDS011;55052;52.056;5.296;2023-04-25T03:37:27;10.52;;;4.00;;
68234;SDS011;55052;52.056;5.296;2023-04-25T03:39:53;13.23;;;4.38;;
68234;SDS011;55052;52.056;5.296;2023-04-25T03:42:20;15.25;;;4.78;;
68234;SDS011;55052;52.056;5.296;2023-04-25T03:44:49;11.90;;;3.67;;
68234;SDS011;55052;52.056;5.296;2023-04-25T03:47:17;8.50;;;2.92;;
68234;SDS011;55052;52.056;5.296;2023-04-25T03:49:44;6.63;;;2.92;;
68234;SDS011;55052;52.056;5.296;2023-04-25T03:52:10;8.52;;;2.88;;
68234;SDS011;55052;52.056;5.296;2023-04-25T03:54:37;12.80;;;2.80;;
68234;SDS011;55052;52.056;5.296;2023-04-25T03:57:04;10.10;;;2.50;;
68234;SDS011;55052;52.056;5.296;2023-04-25T03:59:31;7.75;;;2.33;;
68234;SDS011;55052;52.056;5.296;2023-04-25T04:01:57;7.68;;;3.00;;
68234;SDS011;55052;52.056;5.296;2023-04-25T04:04:24;7.72;;;2.65;;
68234;SDS011;55052;52.056;5.296;2023-04-25T04:06:52;8.95;;;2.53;;
68234;SDS011;55052;52.056;5.296;2023-04-25T04:09:18;7.50;;;2.53;;
68234;SDS011;55052;52.056;5.296;2023-04-25T04:11:46;10.07;;;2.45;;
68234;SDS011;55052;52.056;5.296;2023-04-25T04:14:13;9.65;;;2.45;;
68234;SDS011;55052;52.056;5.296;2023-04-25T04:16:40;7.80;;;2.28;;
68234;SDS011;55052;52.056;5.296;2023-04-25T04:19:07;7.78;;;2.42;;
68234;SDS011;55052;52.056;5.296;2023-04-25T04:21:34;7.88;;;2.70;;
68234;SDS011;55052;52.056;5.296;2023-04-25T04:24:01;8.63;;;2.78;;
68234;SDS011;55052;52.056;5.296;2023-04-25T04:26:28;8.30;;;2.28;;
68234;SDS011;55052;52.056;5.296;2023-04-25T04:28:55;6.72;;;2.25;;
68234;SDS011;55052;52.056;5.296;2023-04-25T04:31:22;9.50;;;2.80;;
68234;SDS011;55052;52.056;5.296;2023-04-25T04:33:50;10.98;;;2.47;;
68234;SDS011;55052;52.056;5.296;2023-04-25T04:36:17;7.35;;;2.20;;
68234;SDS011;55052;52.056;5.296;2023-04-25T04:41:15;7.82;;;2.30;;
68234;SDS011;55052;52.056;5.296;2023-04-25T04:43:42;11.48;;;2.53;;
68234;SDS011;55052;52.056;5.296;2023-04-25T04:46:09;9.32;;;3.20;;
68234;SDS011;55052;52.056;5.296;2023-04-25T04:48:36;9.57;;;2.78;;
68234;SDS011;55052;52.056;5.296;2023-04-25T04:51:03;10.20;;;2.78;;
68234;SDS011;55052;52.056;5.296;2023-04-25T04:53:30;12.85;;;2.50;;
68234;SDS011;55052;52.056;5.296;2023-04-25T04:55:56;10.63;;;2.55;;
68234;SDS011;55052;52.056;5.296;2023-04-25T04:58:23;7.97;;;2.90;;
68234;SDS011;55052;52.056;5.296;2023-04-25T05:00:50;7.20;;;2.47;;
68234;SDS011;55052;52.056;5.296;2023-04-25T05:03:17;11.23;;;2.53;;
68234;SDS011;55052;52.056;5.296;2023-04-25T05:05:44;5.75;;;2.22;;
68234;SDS011;55052;52.056;5.296;2023-04-25T05:08:11;8.25;;;2.30;;
68234;SDS011;55052;52.056;5.296;2023-04-25T05:10:38;13.55;;;2.83;;
68234;SDS011;55052;52.056;5.296;2023-04-25T05:13:05;7.10;;;2.67;;
68234;SDS011;55052;52.056;5.296;2023-04-25T05:15:32;10.32;;;2.92;;
68234;SDS011;55052;52.056;5.296;2023-04-25T05:17:59;13.85;;;2.60;;
68234;SDS011;55052;52.056;5.296;2023-04-25T05:20:26;6.05;;;2.00;;
68234;SDS011;55052;52.056;5.296;2023-04-25T05:22:52;9.93;;;2.40;;
68234;SDS011;55052;52.056;5.296;2023-04-25T05:25:19;11.05;;;2.38;;
68234;SDS011;55052;52.056;5.296;2023-04-25T05:27:46;9.73;;;2.38;;
68234;SDS011;55052;52.056;5.296;2023-04-25T05:30:13;10.48;;;2.92;;
68234;SDS011;55052;52.056;5.296;2023-04-25T05:32:39;5.60;;;2.00;;
68234;SDS011;55052;52.056;5.296;2023-04-25T05:35:06;11.57;;;3.08;;
68234;SDS011;55052;52.056;5.296;2023-04-25T05:37:34;6.55;;;2.53;;
68234;SDS011;55052;52.056;5.296;2023-04-25T05:40:01;8.02;;;2.30;;
68234;SDS011;55052;52.056;5.296;2023-04-25T05:42:32;7.88;;;2.30;;
68234;SDS011;55052;52.056;5.296;2023-04-25T05:44:59;10.50;;;2.45;;
68234;SDS011;55052;52.056;5.296;2023-04-25T05:47:26;5.70;;;2.15;;
68234;SDS011;55052;52.056;5.296;2023-04-25T05:49:54;9.65;;;2.25;;
68234;SDS011;55052;52.056;5.296;2023-04-25T05:52:21;9.95;;;3.55;;
68234;SDS011;55052;52.056;5.296;2023-04-25T05:54:48;8.65;;;2.35;;
68234;SDS011;55052;52.056;5.296;2023-04-25T05:57:24;6.88;;;2.00;;
68234;SDS011;55052;52.056;5.296;2023-04-25T05:59:52;7.65;;;2.08;;
68234;SDS011;55052;52.056;5.296;2023-04-25T06:02:19;6.18;;;2.10;;
68234;SDS011;55052;52.056;5.296;2023-04-25T06:04:49;8.90;;;2.20;;
68234;SDS011;55052;52.056;5.296;2023-04-25T06:07:17;7.90;;;2.28;;
68234;SDS011;55052;52.056;5.296;2023-04-25T06:09:44;11.45;;;2.83;;
68234;SDS011;55052;52.056;5.296;2023-04-25T06:12:11;7.03;;;2.40;;
68234;SDS011;55052;52.056;5.296;2023-04-25T06:14:37;10.60;;;2.60;;
68234;SDS011;55052;52.056;5.296;2023-04-25T06:17:04;11.30;;;2.00;;
68234;SDS011;55052;52.056;5.296;2023-04-25T06:19:37;5.60;;;2.00;;
68234;SDS011;55052;52.056;5.296;2023-04-25T06:22:04;9.93;;;2.23;;
68234;SDS011;55052;52.056;5.296;2023-04-25T06:24:30;9.90;;;1.95;;
68234;SDS011;55052;52.056;5.296;2023-04-25T06:26:57;8.32;;;2.28;;
68234;SDS011;55052;52.056;5.296;2023-04-25T06:29:24;9.35;;;2.22;;
68234;SDS011;55052;52.056;5.296;2023-04-25T06:31:51;11.50;;;2.30;;
68234;SDS011;55052;52.056;5.296;2023-04-25T06:34:18;12.02;;;2.55;;
68234;SDS011;55052;52.056;5.296;2023-04-25T06:36:45;10.90;;;2.15;;
68234;SDS011;55052;52.056;5.296;2023-04-25T06:39:12;9.40;;;1.98;;
68234;SDS011;55052;52.056;5.296;2023-04-25T06:41:38;11.43;;;2.38;;
68234;SDS011;55052;52.056;5.296;2023-04-25T06:44:05;8.68;;;2.33;;
68234;SDS011;55052;52.056;5.296;2023-04-25T06:46:32;11.32;;;3.03;;
68234;SDS011;55052;52.056;5.296;2023-04-25T06:48:59;10.25;;;2.63;;
68234;SDS011;55052;52.056;5.296;2023-04-25T06:51:25;10.38;;;2.70;;
68234;SDS011;55052;52.056;5.296;2023-04-25T06:53:55;6.75;;;2.00;;
68234;SDS011;55052;52.056;5.296;2023-04-25T06:56:22;8.43;;;2.03;;
68234;SDS011;55052;52.056;5.296;2023-04-25T06:58:49;12.07;;;2.15;;
68234;SDS011;55052;52.056;5.296;2023-04-25T07:01:17;9.40;;;2.00;;
68234;SDS011;55052;52.056;5.296;2023-04-25T07:03:43;8.75;;;2.00;;
68234;SDS011;55052;52.056;5.296;2023-04-25T07:06:11;8.82;;;2.20;;
68234;SDS011;55052;52.056;5.296;2023-04-25T07:08:37;9.15;;;2.05;;
68234;SDS011;55052;52.056;5.296;2023-04-25T07:11:04;9.70;;;2.45;;
68234;SDS011;55052;52.056;5.296;2023-04-25T07:13:31;8.73;;;2.00;;
68234;SDS011;55052;52.056;5.296;2023-04-25T07:15:58;8.95;;;2.00;;
68234;SDS011;55052;52.056;5.296;2023-04-25T07:18:26;9.82;;;1.83;;
68234;SDS011;55052;52.056;5.296;2023-04-25T07:20:52;10.77;;;2.00;;
68234;SDS011;55052;52.056;5.296;2023-04-25T07:23:19;8.10;;;2.53;;
68234;SDS011;55052;52.056;5.296;2023-04-25T07:25:46;7.68;;;1.73;;
68234;SDS011;55052;52.056;5.296;2023-04-25T07:28:13;6.25;;;2.13;;
68234;SDS011;55052;52.056;5.296;2023-04-25T07:30:42;13.55;;;2.42;;
68234;SDS011;55052;52.056;5.296;2023-04-25T07:33:09;9.32;;;1.90;;
68234;SDS011;55052;52.056;5.296;2023-04-25T07:35:36;11.70;;;2.38;;
68234;SDS011;55052;52.056;5.296;2023-04-25T07:38:03;10.50;;;1.80;;
68234;SDS011;55052;52.056;5.296;2023-04-25T07:40:30;16.42;;;1.88;;
68234;SDS011;55052;52.056;5.296;2023-04-25T07:42:57;7.80;;;1.70;;
68234;SDS011;55052;52.056;5.296;2023-04-25T07:45:23;8.55;;;2.00;;
68234;SDS011;55052;52.056;5.296;2023-04-25T07:47:51;6.55;;;1.92;;
68234;SDS011;55052;52.056;5.296;2023-04-25T07:50:18;4.22;;;1.65;;
68234;SDS011;55052;52.056;5.296;2023-04-25T07:52:44;8.80;;;2.00;;
68234;SDS011;55052;52.056;5.296;2023-04-25T07:55:11;8.30;;;1.75;;
68234;SDS011;55052;52.056;5.296;2023-04-25T07:57:38;15.77;;;2.35;;
68234;SDS011;55052;52.056;5.296;2023-04-25T08:00:05;8.50;;;1.77;;
68234;SDS011;55052;52.056;5.296;2023-04-25T08:05:02;9.02;;;1.50;;
68234;SDS011;55052;52.056;5.296;2023-04-25T08:07:30;7.20;;;1.83;;
68234;SDS011;55052;52.056;5.296;2023-04-25T08:09:56;6.03;;;2.13;;
68234;SDS011;55052;52.056;5.296;2023-04-25T08:12:23;9.30;;;2.00;;
68234;SDS011;55052;52.056;5.296;2023-04-25T08:14:51;6.43;;;1.85;;
68234;SDS011;55052;52.056;5.296;2023-04-25T08:17:17;9.10;;;1.98;;
68234;SDS011;55052;52.056;5.296;2023-04-25T08:19:44;7.40;;;1.98;;
68234;SDS011;55052;52.056;5.296;2023-04-25T08:22:11;12.35;;;1.67;;
68234;SDS011;55052;52.056;5.296;2023-04-25T08:24:38;5.75;;;1.60;;
68234;SDS011;55052;52.056;5.296;2023-04-25T08:27:05;8.75;;;1.80;;
68234;SDS011;55052;52.056;5.296;2023-04-25T08:29:34;7.35;;;1.95;;
68234;SDS011;55052;52.056;5.296;2023-04-25T08:32:01;9.73;;;1.60;;
68234;SDS011;55052;52.056;5.296;2023-04-25T08:34:27;7.97;;;2.20;;
68234;SDS011;55052;52.056;5.296;2023-04-25T08:36:54;5.28;;;1.80;;
68234;SDS011;55052;52.056;5.296;2023-04-25T08:39:21;5.00;;;1.40;;
68234;SDS011;55052;52.056;5.296;2023-04-25T08:41:48;5.55;;;1.60;;
68234;SDS011;55052;52.056;5.296;2023-04-25T08:44:15;7.60;;;1.50;;
68234;SDS011;55052;52.056;5.296;2023-04-25T08:46:42;7.20;;;1.40;;
68234;SDS011;55052;52.056;5.296;2023-04-25T08:49:16;6.47;;;1.80;;
68234;SDS011;55052;52.056;5.296;2023-04-25T08:51:45;7.05;;;1.80;;
68234;SDS011;55052;52.056;5.296;2023-04-25T08:54:13;9.30;;;1.73;;
68234;SDS011;55052;52.056;5.296;2023-04-25T08:57:01;7.63;;;1.85;;
68234;SDS011;55052;52.056;5.296;2023-04-25T08:59:31;7.93;;;1.80;;
68234;SDS011;55052;52.056;5.296;2023-04-25T09:01:58;5.93;;;1.73;;
68234;SDS011;55052;52.056;5.296;2023-04-25T09:04:26;6.25;;;1.70;;
68234;SDS011;55052;52.056;5.296;2023-04-25T09:06:53;4.30;;;1.92;;
68234;SDS011;55052;52.056;5.296;2023-04-25T09:09:20;7.80;;;1.90;;
68234;SDS011;55052;52.056;5.296;2023-04-25T09:11:47;10.35;;;1.80;;
68234;SDS011;55052;52.056;5.296;2023-04-25T09:14:18;5.68;;;2.30;;
68234;SDS011;55052;52.056;5.296;2023-04-25T09:16:57;6.00;;;1.60;;
68234;SDS011;55052;52.056;5.296;2023-04-25T09:19:31;5.70;;;1.40;;
68234;SDS011;55052;52.056;5.296;2023-04-25T09:22:05;7.32;;;1.45;;
68234;SDS011;55052;52.056;5.296;2023-04-25T09:24:34;6.70;;;1.42;;
68234;SDS011;55052;52.056;5.296;2023-04-25T09:27:03;9.75;;;2.50;;
68234;SDS011;55052;52.056;5.296;2023-04-25T09:29:33;6.22;;;1.67;;
68234;SDS011;55052;52.056;5.296;2023-04-25T09:34:49;8.45;;;1.48;;
68234;SDS011;55052;52.056;5.296;2023-04-25T09:37:17;9.07;;;1.83;;
68234;SDS011;55052;52.056;5.296;2023-04-25T09:39:47;3.63;;;1.67;;
68234;SDS011;55052;52.056;5.296;2023-04-25T09:42:21;4.72;;;1.40;;
68234;SDS011;55052;52.056;5.296;2023-04-25T09:44:51;5.97;;;1.45;;
68234;SDS011;55052;52.056;5.296;2023-04-25T09:47:19;5.72;;;1.48;;
68234;SDS011;55052;52.056;5.296;2023-04-25T09:49:48;8.38;;;1.60;;
68234;SDS011;55052;52.056;5.296;2023-04-25T09:52:20;4.22;;;1.50;;
68234;SDS011;55052;52.056;5.296;2023-04-25T09:54:51;7.93;;;1.90;;
68234;SDS011;55052;52.056;5.296;2023-04-25T09:57:24;6.97;;;1.95;;
68234;SDS011;55052;52.056;5.296;2023-04-25T09:59:53;5.75;;;1.70;;
68234;SDS011;55052;52.056;5.296;2023-04-25T10:02:22;6.72;;;1.38;;
68234;SDS011;55052;52.056;5.296;2023-04-25T10:04:53;5.00;;;2.22;;
68234;SDS011;55052;52.056;5.296;2023-04-25T10:07:24;6.90;;;1.40;;
68234;SDS011;55052;52.056;5.296;2023-04-25T10:10:03;7.03;;;1.52;;
68234;SDS011;55052;52.056;5.296;2023-04-25T10:12:30;7.15;;;1.40;;
68234;SDS011;55052;52.056;5.296;2023-04-25T10:14:59;3.88;;;1.38;;
68234;SDS011;55052;52.056;5.296;2023-04-25T10:17:27;5.30;;;1.80;;
68234;SDS011;55052;52.056;5.296;2023-04-25T10:19:54;6.43;;;1.75;;
68234;SDS011;55052;52.056;5.296;2023-04-25T10:22:32;6.20;;;1.50;;
68234;SDS011;55052;52.056;5.296;2023-04-25T10:27:32;8.70;;;1.70;;
68234;SDS011;55052;52.056;5.296;2023-04-25T10:30:04;5.15;;;1.58;;
68234;SDS011;55052;52.056;5.296;2023-04-25T10:32:32;6.03;;;1.58;;
68234;SDS011;55052;52.056;5.296;2023-04-25T10:35:10;7.90;;;2.20;;
68234;SDS011;55052;52.056;5.296;2023-04-25T10:40:32;7.72;;;1.85;;
68234;SDS011;55052;52.056;5.296;2023-04-25T10:45:59;4.78;;;1.60;;
68234;SDS011;55052;52.056;5.296;2023-04-25T10:48:27;5.60;;;1.50;;
68234;SDS011;55052;52.056;5.296;2023-04-25T10:53:35;7.10;;;1.55;;
68234;SDS011;55052;52.056;5.296;2023-04-25T10:59:08;4.72;;;1.42;;
68234;SDS011;55052;52.056;5.296;2023-04-25T11:04:30;8.95;;;1.67;;
68234;SDS011;55052;52.056;5.296;2023-04-25T11:09:38;2.80;;;1.35;;
68234;SDS011;55052;52.056;5.296;2023-04-25T11:12:09;4.93;;;1.40;;
68234;SDS011;55052;52.056;5.296;2023-04-25T11:14:38;5.47;;;1.48;;
68234;SDS011;55052;52.056;5.296;2023-04-25T11:17:10;6.28;;;1.60;;
68234;SDS011;55052;52.056;5.296;2023-04-25T11:19:38;4.68;;;1.73;;
68234;SDS011;55052;52.056;5.296;2023-04-25T11:22:04;4.18;;;1.40;;
68234;SDS011;55052;52.056;5.296;2023-04-25T11:24:33;8.48;;;1.70;;
68234;SDS011;55052;52.056;5.296;2023-04-25T11:27:01;5.80;;;1.33;;
68234;SDS011;55052;52.056;5.296;2023-04-25T11:29:30;5.65;;;1.50;;
68234;SDS011;55052;52.056;5.296;2023-04-25T11:31:58;4.18;;;1.45;;
68234;SDS011;55052;52.056;5.296;2023-04-25T11:34:30;8.30;;;1.60;;
68234;SDS011;55052;52.056;5.296;2023-04-25T11:36:59;5.43;;;1.40;;
68234;SDS011;55052;52.056;5.296;2023-04-25T11:39:28;3.42;;;1.30;;
68234;SDS011;55052;52.056;5.296;2023-04-25T11:41:55;5.90;;;1.50;;
68234;SDS011;55052;52.056;5.296;2023-04-25T11:44:22;5.80;;;1.55;;
68234;SDS011;55052;52.056;5.296;2023-04-25T11:46:49;4.72;;;1.40;;
68234;SDS011;55052;52.056;5.296;2023-04-25T11:49:16;6.05;;;1.25;;
68234;SDS011;55052;52.056;5.296;2023-04-25T11:51:45;7.30;;;1.50;;
68234;SDS011;55052;52.056;5.296;2023-04-25T11:54:14;4.20;;;1.23;;
68234;SDS011;55052;52.056;5.296;2023-04-25T11:56:41;3.25;;;1.40;;
68234;SDS011;55052;52.056;5.296;2023-04-25T11:59:09;7.95;;;1.50;;
68234;SDS011;55052;52.056;5.296;2023-04-25T12:01:39;4.50;;;1.48;;
68234;SDS011;55052;52.056;5.296;2023-04-25T12:04:11;5.22;;;1.65;;
68234;SDS011;55052;52.056;5.296;2023-04-25T12:06:51;7.75;;;1.85;;
68234;SDS011;55052;52.056;5.296;2023-04-25T12:09:20;5.82;;;1.63;;
68234;SDS011;55052;52.056;5.296;2023-04-25T12:11:54;4.90;;;1.50;;
68234;SDS011;55052;52.056;5.296;2023-04-25T12:14:23;4.25;;;1.40;;
68234;SDS011;55052;52.056;5.296;2023-04-25T12:16:55;4.72;;;1.50;;
68234;SDS011;55052;52.056;5.296;2023-04-25T12:19:24;2.65;;;1.40;;
68234;SDS011;55052;52.056;5.296;2023-04-25T12:21:52;7.10;;;1.50;;
68234;SDS011;55052;52.056;5.296;2023-04-25T12:24:24;5.47;;;1.30;;
68234;SDS011;55052;52.056;5.296;2023-04-25T12:29:31;5.63;;;1.75;;
68234;SDS011;55052;52.056;5.296;2023-04-25T12:32:14;5.72;;;1.38;;
68234;SDS011;55052;52.056;5.296;2023-04-25T12:34:41;4.18;;;1.42;;
68234;SDS011;55052;52.056;5.296;2023-04-25T12:37:08;2.92;;;1.45;;
68234;SDS011;55052;52.056;5.296;2023-04-25T12:39:35;7.68;;;1.40;;
68234;SDS011;55052;52.056;5.296;2023-04-25T12:42:02;4.30;;;1.23;;
68234;SDS011;55052;52.056;5.296;2023-04-25T12:47:00;3.33;;;1.40;;
68234;SDS011;55052;52.056;5.296;2023-04-25T12:49:27;4.50;;;1.55;;
68234;SDS011;55052;52.056;5.296;2023-04-25T12:51:54;4.57;;;1.60;;
68234;SDS011;55052;52.056;5.296;2023-04-25T12:54:21;2.83;;;1.30;;
68234;SDS011;55052;52.056;5.296;2023-04-25T12:56:47;2.65;;;1.20;;
68234;SDS011;55052;52.056;5.296;2023-04-25T12:59:14;4.95;;;1.40;;
68234;SDS011;55052;52.056;5.296;2023-04-25T13:01:41;6.68;;;1.50;;
68234;SDS011;55052;52.056;5.296;2023-04-25T13:04:09;5.72;;;1.85;;
68234;SDS011;55052;52.056;5.296;2023-04-25T13:06:36;7.15;;;1.77;;
68234;SDS011;55052;52.056;5.296;2023-04-25T13:09:03;4.95;;;1.35;;
68234;SDS011;55052;52.056;5.296;2023-04-25T13:11:30;9.38;;;1.88;;
68234;SDS011;55052;52.056;5.296;2023-04-25T13:13:57;6.85;;;1.83;;
68234;SDS011;55052;52.056;5.296;2023-04-25T13:16:25;5.88;;;1.80;;
68234;SDS011;55052;52.056;5.296;2023-04-25T13:18:51;4.32;;;1.50;;
68234;SDS011;55052;52.056;5.296;2023-04-25T13:21:18;5.13;;;1.40;;
68234;SDS011;55052;52.056;5.296;2023-04-25T13:23:45;6.68;;;1.70;;
68234;SDS011;55052;52.056;5.296;2023-04-25T13:26:12;6.30;;;1.80;;
68234;SDS011;55052;52.056;5.296;2023-04-25T13:28:39;6.38;;;1.65;;
68234;SDS011;55052;52.056;5.296;2023-04-25T13:31:10;5.22;;;1.58;;
68234;SDS011;55052;52.056;5.296;2023-04-25T13:33:36;6.70;;;1.70;;
68234;SDS011;55052;52.056;5.296;2023-04-25T13:36:03;6.07;;;1.50;;
68234;SDS011;55052;52.056;5.296;2023-04-25T13:38:30;3.72;;;1.48;;
68234;SDS011;55052;52.056;5.296;2023-04-25T13:40:57;4.50;;;1.45;;
68234;SDS011;55052;52.056;5.296;2023-04-25T13:43:24;3.33;;;1.38;;
68234;SDS011;55052;52.056;5.296;2023-04-25T13:45:51;3.38;;;1.35;;
68234;SDS011;55052;52.056;5.296;2023-04-25T13:48:18;5.13;;;1.30;;
68234;SDS011;55052;52.056;5.296;2023-04-25T13:50:46;4.25;;;1.63;;
68234;SDS011;55052;52.056;5.296;2023-04-25T13:53:12;3.60;;;1.30;;
68234;SDS011;55052;52.056;5.296;2023-04-25T13:55:39;5.15;;;1.52;;
68234;SDS011;55052;52.056;5.296;2023-04-25T13:58:06;3.72;;;1.20;;
68234;SDS011;55052;52.056;5.296;2023-04-25T14:00:37;6.60;;;1.70;;
68234;SDS011;55052;52.056;5.296;2023-04-25T14:03:05;5.78;;;1.58;;
68234;SDS011;55052;52.056;5.296;2023-04-25T14:05:36;5.10;;;1.50;;
68234;SDS011;55052;52.056;5.296;2023-04-25T14:08:05;6.88;;;1.65;;
68234;SDS011;55052;52.056;5.296;2023-04-25T14:10:33;3.60;;;1.60;;
68234;SDS011;55052;52.056;5.296;2023-04-25T14:13:00;3.85;;;1.77;;
68234;SDS011;55052;52.056;5.296;2023-04-25T14:15:32;5.63;;;1.65;;
68234;SDS011;55052;52.056;5.296;2023-04-25T14:17:59;4.38;;;1.60;;
68234;SDS011;55052;52.056;5.296;2023-04-25T14:20:27;7.00;;;1.83;;
68234;SDS011;55052;52.056;5.296;2023-04-25T14:22:54;6.00;;;1.58;;
68234;SDS011;55052;52.056;5.296;2023-04-25T14:25:23;4.93;;;1.50;;
68234;SDS011;55052;52.056;5.296;2023-04-25T14:27:50;2.88;;;1.38;;
68234;SDS011;55052;52.056;5.296;2023-04-25T14:30:17;4.80;;;1.38;;
68234;SDS011;55052;52.056;5.296;2023-04-25T14:32:45;11.85;;;2.00;;
68234;SDS011;55052;52.056;5.296;2023-04-25T14:35:12;7.50;;;1.70;;
68234;SDS011;55052;52.056;5.296;2023-04-25T14:37:39;9.60;;;1.80;;
68234;SDS011;55052;52.056;5.296;2023-04-25T14:40:07;5.15;;;1.52;;
68234;SDS011;55052;52.056;5.296;2023-04-25T14:42:38;6.68;;;1.70;;
68234;SDS011;55052;52.056;5.296;2023-04-25T14:45:06;5.07;;;1.73;;
68234;SDS011;55052;52.056;5.296;2023-04-25T14:47:35;10.32;;;1.88;;
68234;SDS011;55052;52.056;5.296;2023-04-25T14:50:03;5.82;;;1.35;;
68234;SDS011;55052;52.056;5.296;2023-04-25T14:52:30;7.20;;;1.80;;
68234;SDS011;55052;52.056;5.296;2023-04-25T14:54:57;7.32;;;1.63;;
68234;SDS011;55052;52.056;5.296;2023-04-25T14:57:26;4.82;;;1.40;;
68234;SDS011;55052;52.056;5.296;2023-04-25T14:59:53;9.48;;;1.98;;
68234;SDS011;55052;52.056;5.296;2023-04-25T15:02:20;6.25;;;1.67;;
68234;SDS011;55052;52.056;5.296;2023-04-25T15:04:47;6.57;;;1.60;;
68234;SDS011;55052;52.056;5.296;2023-04-25T15:07:14;3.92;;;1.70;;
68234;SDS011;55052;52.056;5.296;2023-04-25T15:09:43;6.03;;;1.75;;
68234;SDS011;55052;52.056;5.296;2023-04-25T15:12:10;5.25;;;2.55;;
68234;SDS011;55052;52.056;5.296;2023-04-25T15:14:38;7.30;;;1.58;;
68234;SDS011;55052;52.056;5.296;2023-04-25T15:17:05;4.60;;;1.60;;
68234;SDS011;55052;52.056;5.296;2023-04-25T15:19:32;6.65;;;1.50;;
68234;SDS011;55052;52.056;5.296;2023-04-25T15:21:59;6.18;;;1.70;;